Time;durP1;ratioP1;P1;durP2;ratioP2;P2;SDS_P1;SDS_P2;PMS_P1;PMS_P2;Temp;Humidity;BMP_temperature;BMP_pressure;BME280_temperature;BME280_humidity;BME280_pressure;Samples;Min_cycle;Max_cycle;Signal;HPM_P1;HPM_P2
2023/02/24 00:01:24;;;;;;;39.53;19.20;;;10.60;90.60;;;;;;5050966;28;20526;-78
2023/02/24 00:03:55;;;;;;;48.33;20.70;;;10.70;90.50;;;;;;5047409;28;20538;-78
2023/02/24 00:06:22;;;;;;;38.70;18.47;;;10.70;90.30;;;;;;5037698;28;20479;-78
2023/02/24 00:08:48;;;;;;;43.30;20.00;;;10.70;90.20;;;;;;5046337;28;20450;-77
2023/02/24 00:11:15;;;;;;;46.80;20.50;;;10.70;90.20;;;;;;5042497;28;20814;-77
2023/02/24 00:13:46;;;;;;;35.40;18.93;;;10.70;90.10;;;;;;5049617;28;20216;-78
2023/02/24 00:16:15;;;;;;;35.47;18.37;;;10.80;89.90;;;;;;5034742;28;20447;-79
2023/02/24 00:18:41;;;;;;;37.57;19.07;;;10.80;89.70;;;;;;5047505;28;20428;-79
2023/02/24 00:21:14;;;;;;;37.07;19.43;;;10.80;89.60;;;;;;5044322;28;20452;-79
2023/02/24 00:23:45;;;;;;;39.80;18.37;;;10.70;89.60;;;;;;5041787;28;20474;-77
2023/02/24 00:26:11;;;;;;;48.37;19.70;;;10.80;89.70;;;;;;5033728;28;20451;-79
2023/02/24 00:28:37;;;;;;;44.97;21.23;;;10.80;89.30;;;;;;5039307;28;20935;-79
2023/02/24 00:31:12;;;;;;;56.50;21.93;;;10.70;89.20;;;;;;5038653;28;20424;-79
2023/02/24 00:33:39;;;;;;;48.80;21.40;;;10.70;89.00;;;;;;5038770;28;20205;-79
2023/02/24 00:36:27;;;;;;;40.17;20.70;;;10.60;89.00;;;;;;5032538;28;20465;-77
2023/02/24 00:38:56;;;;;;;48.30;21.50;;;10.60;89.20;;;;;;5035108;28;20428;-79
2023/02/24 00:41:30;;;;;;;46.50;21.50;;;10.60;89.20;;;;;;5043496;28;20942;-79
2023/02/24 00:44:04;;;;;;;48.90;23.03;;;10.60;89.00;;;;;;5040593;28;20978;-78
2023/02/24 00:46:30;;;;;;;47.23;21.80;;;10.60;89.00;;;;;;5044052;28;20459;-78
2023/02/24 00:48:56;;;;;;;45.37;20.93;;;10.50;89.20;;;;;;5040723;28;20430;-79
2023/02/24 00:51:25;;;;;;;43.57;21.00;;;10.60;89.60;;;;;;5040665;28;20764;-78
2023/02/24 00:53:56;;;;;;;45.43;20.13;;;10.50;89.20;;;;;;5039591;28;20783;-77
2023/02/24 00:56:23;;;;;;;47.57;20.97;;;10.60;89.60;;;;;;5034913;28;20550;-77
2023/02/24 00:58:48;;;;;;;46.93;22.07;;;10.60;89.20;;;;;;5031256;28;20431;-78
2023/02/24 01:01:17;;;;;;;48.27;20.70;;;10.60;89.20;;;;;;5036244;28;20451;-78
2023/02/24 01:03:44;;;;;;;45.50;23.40;;;10.60;89.30;;;;;;5036712;28;20292;-76
2023/02/24 01:06:11;;;;;;;47.27;23.53;;;10.50;89.20;;;;;;5031434;28;20444;-77
2023/02/24 01:08:41;;;;;;;48.97;22.20;;;10.50;89.60;;;;;;5035249;28;20430;-78
2023/02/24 01:13:52;;;;;;;50.97;23.00;;;10.60;89.70;;;;;;5036948;28;20446;-77
2023/02/24 01:16:17;;;;;;;53.03;23.53;;;10.40;89.90;;;;;;5034639;28;21237;-78
2023/02/24 01:18:46;;;;;;;50.23;24.00;;;10.30;90.20;;;;;;5031032;28;20201;-78
2023/02/24 01:21:14;;;;;;;52.83;21.87;;;10.30;90.30;;;;;;5038836;28;20659;-79
2023/02/24 01:23:41;;;;;;;46.57;22.23;;;10.30;90.50;;;;;;5038917;28;20464;-79
2023/02/24 01:26:07;;;;;;;40.83;20.90;;;10.30;90.60;;;;;;5036033;28;20550;-78
2023/02/24 01:28:33;;;;;;;51.27;22.67;;;10.20;90.70;;;;;;5037854;28;20424;-79
2023/02/24 01:31:02;;;;;;;47.37;22.10;;;10.20;90.70;;;;;;5039656;28;20864;-78
2023/02/24 01:33:32;;;;;;;48.70;23.10;;;10.10;90.90;;;;;;5037752;28;20523;-78
2023/02/24 01:36:08;;;;;;;43.47;22.60;;;10.20;91.00;;;;;;5028038;28;20831;-79
2023/02/24 01:38:35;;;;;;;47.20;22.30;;;10.20;90.90;;;;;;5035927;28;20447;-80
2023/02/24 01:41:03;;;;;;;46.57;20.70;;;10.10;91.10;;;;;;5042288;28;20424;-78
2023/02/24 01:43:31;;;;;;;46.97;22.37;;;10.00;91.10;;;;;;5034257;28;20487;-79
2023/02/24 01:45:56;;;;;;;51.47;21.80;;;10.00;91.30;;;;;;5039674;28;20514;-78
2023/02/24 01:48:23;;;;;;;43.43;20.60;;;10.00;91.40;;;;;;5053193;28;20412;-77
2023/02/24 01:50:49;;;;;;;36.53;19.60;;;9.90;91.50;;;;;;5054869;28;20189;-77
2023/02/24 01:53:15;;;;;;;47.30;22.40;;;9.90;91.70;;;;;;5055259;28;20412;-77
2023/02/24 01:55:51;;;;;;;39.53;20.43;;;9.90;91.80;;;;;;5056417;28;20490;-78
2023/02/24 01:58:27;;;;;;;38.23;19.53;;;9.90;91.80;;;;;;5067512;28;20420;-78
2023/02/24 02:00:52;;;;;;;39.23;20.57;;;9.80;91.90;;;;;;5053254;28;20447;-77
2023/02/24 02:03:32;;;;;;;41.63;19.73;;;9.80;91.90;;;;;;5052404;28;20506;-78
2023/02/24 02:06:02;;;;;;;46.10;22.50;;;9.90;92.00;;;;;;5038103;28;20706;-79
2023/02/24 02:08:28;;;;;;;49.63;21.30;;;9.70;91.90;;;;;;5034398;28;20825;-79
2023/02/24 02:11:01;;;;;;;42.03;21.40;;;9.70;92.10;;;;;;5038496;28;20431;-78
2023/02/24 02:13:27;;;;;;;47.47;22.73;;;9.70;92.10;;;;;;5036374;28;20428;-79
2023/02/24 02:15:55;;;;;;;58.27;24.73;;;9.80;91.90;;;;;;5036237;28;20448;-77
2023/02/24 02:18:45;;;;;;;50.00;21.93;;;9.60;91.80;;;;;;5036593;28;20423;-78
2023/02/24 02:21:35;;;;;;;45.40;22.67;;;9.70;92.00;;;;;;5027951;28;20444;-79
2023/02/24 02:24:19;;;;;;;42.73;22.23;;;9.70;91.90;;;;;;5034487;28;20473;-79
2023/02/24 02:26:56;;;;;;;44.77;20.30;;;9.80;91.80;;;;;;5033535;28;20521;-79
2023/02/24 02:29:40;;;;;;;46.33;22.47;;;9.80;91.60;;;;;;5035496;28;20451;-78
2023/02/24 02:32:37;;;;;;;56.20;23.53;;;9.80;91.30;;;;;;5053586;28;20515;-77
2023/02/24 02:35:20;;;;;;;47.13;21.50;;;9.80;91.30;;;;;;5049527;28;20483;-79
2023/02/24 02:38:13;;;;;;;50.73;21.63;;;9.80;91.40;;;;;;5044518;28;20514;-79
2023/02/24 02:40:51;;;;;;;55.50;23.07;;;9.80;91.20;;;;;;5053806;28;20495;-78
2023/02/24 02:43:55;;;;;;;47.40;21.30;;;9.80;90.90;;;;;;5054313;28;20458;-78
2023/02/24 02:46:37;;;;;;;45.50;21.17;;;9.80;90.90;;;;;;5042395;28;20459;-77
2023/02/24 02:49:15;;;;;;;43.13;19.77;;;9.70;90.90;;;;;;5055030;28;20424;-79
2023/02/24 02:52:09;;;;;;;47.03;20.30;;;9.80;90.90;;;;;;5047817;28;20424;-79
2023/02/24 02:54:48;;;;;;;40.77;20.50;;;9.80;90.90;;;;;;5042283;28;20423;-80
2023/02/24 02:57:28;;;;;;;42.97;20.20;;;9.80;91.00;;;;;;5036620;28;20404;-78
2023/02/24 03:00:20;;;;;;;51.47;23.40;;;9.80;91.00;;;;;;5039775;28;20415;-77
2023/02/24 03:02:49;;;;;;;44.37;21.70;;;9.80;90.90;;;;;;5021731;28;20444;-78
2023/02/24 03:05:20;;;;;;;45.93;21.47;;;9.80;91.00;;;;;;5037226;28;20542;-78
2023/02/24 03:07:50;;;;;;;47.83;22.70;;;9.80;91.10;;;;;;5039222;28;20447;-78
2023/02/24 03:10:26;;;;;;;45.83;21.70;;;9.80;91.10;;;;;;5054556;28;20424;-78
2023/02/24 03:12:54;;;;;;;52.40;22.83;;;9.90;91.10;;;;;;5056044;28;20432;-76
2023/02/24 03:15:25;;;;;;;46.13;22.17;;;9.90;90.90;;;;;;5055318;28;20455;-78
2023/02/24 03:17:56;;;;;;;50.63;23.60;;;9.90;90.80;;;;;;5052473;28;20466;-77
2023/02/24 03:20:34;;;;;;;58.77;22.07;;;9.90;90.80;;;;;;5052219;28;20404;-77
2023/02/24 03:22:59;;;;;;;53.17;24.13;;;9.80;90.90;;;;;;5051666;28;20550;-78
2023/02/24 03:25:33;;;;;;;53.57;23.50;;;9.90;91.00;;;;;;5033141;28;20884;-79
2023/02/24 03:28:06;;;;;;;56.50;24.57;;;9.90;91.00;;;;;;5031918;28;20188;-77
2023/02/24 03:30:41;;;;;;;57.33;26.13;;;9.80;90.90;;;;;;5026872;28;20427;-78
2023/02/24 03:33:22;;;;;;;57.77;24.10;;;9.70;91.00;;;;;;5036046;28;20431;-79
2023/02/24 03:35:50;;;;;;;53.30;23.13;;;9.70;91.10;;;;;;5029040;28;20551;-79
2023/02/24 03:38:17;;;;;;;53.23;24.23;;;9.70;91.20;;;;;;5033941;28;20455;-78
2023/02/24 03:40:43;;;;;;;57.50;24.50;;;9.80;91.20;;;;;;5041246;28;20420;-78
2023/02/24 03:43:24;;;;;;;54.90;23.20;;;9.80;91.10;;;;;;5037319;28;20487;-78
2023/02/24 03:45:50;;;;;;;56.07;25.47;;;9.70;91.00;;;;;;5032331;28;20291;-78
2023/02/24 03:48:16;;;;;;;48.00;22.80;;;9.70;91.00;;;;;;5040968;28;20428;-77
2023/02/24 03:50:42;;;;;;;53.47;25.33;;;9.80;91.10;;;;;;5038628;28;20427;-77
2023/02/24 03:53:37;;;;;;;49.60;22.77;;;9.80;91.10;;;;;;5049533;28;20212;-78
2023/02/24 03:56:17;;;;;;;48.93;23.20;;;9.80;90.90;;;;;;5046702;28;20509;-79
2023/02/24 03:59:03;;;;;;;50.83;22.90;;;9.80;90.70;;;;;;5040217;28;20430;-78
2023/02/24 04:01:56;;;;;;;54.40;24.17;;;9.80;90.70;;;;;;5053709;28;20880;-78
2023/02/24 04:04:32;;;;;;;48.87;22.40;;;9.80;90.70;;;;;;5047682;28;20456;-79
2023/02/24 04:07:04;;;;;;;52.90;22.77;;;9.80;90.80;;;;;;5047732;28;20462;-78
2023/02/24 04:09:57;;;;;;;48.27;23.37;;;9.80;90.60;;;;;;5053214;28;20458;-79
2023/02/24 04:12:28;;;;;;;53.43;24.63;;;9.80;90.60;;;;;;5040787;28;20430;-78
2023/02/24 04:15:14;;;;;;;57.10;24.67;;;9.70;90.60;;;;;;5036977;28;21673;-79
2023/02/24 04:17:56;;;;;;;55.60;24.80;;;9.70;90.70;;;;;;5030146;28;20419;-77
2023/02/24 04:20:28;;;;;;;53.23;23.73;;;9.60;90.70;;;;;;5034054;28;20423;-77
2023/02/24 04:23:00;;;;;;;60.73;27.30;;;9.60;91.00;;;;;;5030382;28;20960;-78
2023/02/24 04:25:27;;;;;;;52.60;24.50;;;9.60;90.90;;;;;;5035501;28;20989;-77
2023/02/24 04:27:57;;;;;;;58.10;26.10;;;9.60;91.00;;;;;;5038682;28;20430;-78
2023/02/24 04:30:26;;;;;;;51.93;23.70;;;9.50;91.20;;;;;;5038686;28;20443;-77
2023/02/24 04:32:51;;;;;;;57.67;26.10;;;9.50;91.20;;;;;;5044968;28;20424;-77
2023/02/24 04:35:21;;;;;;;67.07;27.77;;;9.40;91.40;;;;;;5038110;28;20464;-77
2023/02/24 04:37:46;;;;;;;62.03;26.43;;;9.40;91.50;;;;;;5036291;28;20299;-78
2023/02/24 04:40:17;;;;;;;63.10;26.53;;;9.40;91.70;;;;;;5032782;28;20436;-78
2023/02/24 04:42:47;;;;;;;61.67;25.07;;;9.50;91.80;;;;;;5031039;28;20193;-79
2023/02/24 04:45:15;;;;;;;71.17;28.00;;;9.40;91.80;;;;;;5035769;28;20443;-79
2023/02/24 04:47:41;;;;;;;72.43;29.40;;;9.50;91.80;;;;;;5035077;28;20419;-79
2023/02/24 04:50:10;;;;;;;74.50;29.73;;;9.50;91.80;;;;;;5031729;28;20938;-79
2023/02/24 04:52:35;;;;;;;56.70;25.50;;;9.50;91.60;;;;;;5035789;28;20523;-79
2023/02/24 04:55:08;;;;;;;69.43;27.43;;;9.40;91.60;;;;;;5033730;28;20481;-80
2023/02/24 04:57:36;;;;;;;63.17;26.70;;;9.40;91.70;;;;;;5039884;28;20193;-80
2023/02/24 05:00:19;;;;;;;64.90;27.20;;;9.50;91.70;;;;;;5036348;28;20808;-79
2023/02/24 05:02:46;;;;;;;67.77;28.37;;;9.50;91.60;;;;;;5033567;28;20825;-79
2023/02/24 05:05:13;;;;;;;69.97;28.67;;;9.40;91.60;;;;;;5029506;28;20460;-78
2023/02/24 05:07:39;;;;;;;71.13;29.00;;;9.40;91.60;;;;;;5036521;28;20424;-79
2023/02/24 05:10:05;;;;;;;75.03;28.77;;;9.50;91.70;;;;;;5035931;28;20942;-79
2023/02/24 05:12:31;;;;;;;57.93;24.60;;;9.50;91.70;;;;;;5036165;28;20193;-79
2023/02/24 05:15:00;;;;;;;63.93;27.40;;;9.50;91.60;;;;;;5035207;28;20536;-82
2023/02/24 05:17:26;;;;;;;66.87;27.60;;;9.50;91.40;;;;;;5034374;28;20824;-81
2023/02/24 05:22:36;;;;;;;57.83;25.27;;;9.40;90.90;;;;;;5035259;28;20415;-82
2023/02/24 05:25:03;;;;;;;68.00;25.90;;;9.20;91.10;;;;;;5037606;28;20447;-80
2023/02/24 05:27:29;;;;;;;66.77;27.57;;;9.20;91.30;;;;;;5036186;28;20178;-80
2023/02/24 05:29:55;;;;;;;74.27;27.07;;;9.20;91.50;;;;;;5036483;28;20473;-80
2023/02/24 05:32:24;;;;;;;61.90;25.90;;;9.10;91.40;;;;;;5034938;28;20188;-81
2023/02/24 05:34:49;;;;;;;69.33;27.53;;;9.20;91.70;;;;;;5028646;28;20613;-80
2023/02/24 05:37:15;;;;;;;61.30;25.37;;;9.20;91.70;;;;;;5034656;28;20459;-81
2023/02/24 05:39:41;;;;;;;71.33;29.43;;;9.30;91.70;;;;;;5037216;28;20251;-81
2023/02/24 05:42:07;;;;;;;61.27;26.50;;;9.30;91.80;;;;;;5035800;28;20181;-82
2023/02/24 05:44:34;;;;;;;70.73;28.50;;;9.30;91.70;;;;;;5035111;28;20296;-79
2023/02/24 05:47:00;;;;;;;69.57;27.43;;;9.30;91.60;;;;;;5030119;28;20483;-82
2023/02/24 05:49:31;;;;;;;61.60;25.60;;;9.30;91.50;;;;;;5036182;28;20444;-78
2023/02/24 05:51:59;;;;;;;69.43;27.30;;;9.30;91.40;;;;;;5037597;28;20401;-78
2023/02/24 05:54:28;;;;;;;58.93;25.17;;;9.40;91.30;;;;;;5037982;28;20424;-78
2023/02/24 05:57:01;;;;;;;61.40;24.00;;;9.40;91.10;;;;;;5031429;28;20450;-78
2023/02/24 05:59:31;;;;;;;73.63;27.30;;;9.40;91.10;;;;;;5034538;28;21425;-78
2023/02/24 06:01:59;;;;;;;66.90;27.17;;;9.50;91.10;;;;;;5030335;28;20435;-79
2023/02/24 06:05:07;;;;;;;68.93;26.37;;;9.50;91.00;;;;;;5028672;28;20467;-78
2023/02/24 06:07:19;;;;;;;78.07;28.03;;;9.50;90.90;;;;;;5034551;28;20531;-80
2023/02/24 06:09:58;;;;;;;83.23;30.33;;;9.50;91.10;;;;;;5037086;28;21231;-79
2023/02/24 06:12:30;;;;;;;67.70;27.97;;;9.50;90.90;;;;;;5036559;28;20415;-78
2023/02/24 06:14:59;;;;;;;75.57;27.57;;;9.40;90.80;;;;;;5036010;28;20461;-81
2023/02/24 06:17:26;;;;;;;84.83;31.33;;;9.20;91.10;;;;;;5040913;28;20420;-80
2023/02/24 06:19:52;;;;;;;82.63;29.73;;;9.10;91.50;;;;;;5045117;28;20455;-82
2023/02/24 06:22:21;;;;;;;68.47;28.20;;;9.00;91.80;;;;;;5036624;28;20455;-81
2023/02/24 06:24:48;;;;;;;77.17;27.40;;;9.00;92.00;;;;;;5037064;28;20499;-82
2023/02/24 06:27:17;;;;;;;93.47;35.27;;;9.10;92.20;;;;;;5026306;28;20463;-81
2023/02/24 06:29:44;;;;;;;80.90;30.10;;;9.10;92.20;;;;;;5034200;28;20431;-81
2023/02/24 06:32:10;;;;;;;82.23;30.37;;;9.10;92.20;;;;;;5034540;28;20431;-81
2023/02/24 06:34:36;;;;;;;86.73;31.23;;;9.10;92.10;;;;;;5035216;28;21001;-79
2023/02/24 06:37:03;;;;;;;84.40;29.87;;;9.10;92.10;;;;;;5029062;28;20440;-82
2023/02/24 06:39:31;;;;;;;81.33;29.60;;;9.10;91.80;;;;;;5034870;28;20583;-82
2023/02/24 06:42:02;;;;;;;83.87;29.97;;;9.10;92.00;;;;;;5035194;28;20511;-83
2023/02/24 06:44:29;;;;;;;75.77;29.10;;;9.00;92.00;;;;;;5037400;28;21279;-83
2023/02/24 06:46:55;;;;;;;66.70;28.10;;;9.00;92.20;;;;;;5031246;28;20532;-82
2023/02/24 06:49:21;;;;;;;80.43;29.60;;;9.00;92.30;;;;;;5035192;28;20428;-80
2023/02/24 06:51:49;;;;;;;81.37;29.60;;;9.00;92.30;;;;;;5035458;28;20251;-82
2023/02/24 06:54:15;;;;;;;86.10;31.13;;;9.00;92.40;;;;;;5029621;28;20458;-82
2023/02/24 06:56:40;;;;;;;85.50;33.03;;;9.10;92.50;;;;;;5029874;28;20617;-83
2023/02/24 06:59:10;;;;;;;92.50;34.27;;;9.20;92.50;;;;;;5034076;28;20432;-83
2023/02/24 07:01:43;;;;;;;77.90;29.47;;;9.10;92.30;;;;;;5033006;28;20197;-81
2023/02/24 07:06:41;;;;;;;86.57;31.23;;;9.10;92.40;;;;;;5032868;28;20905;-81
2023/02/24 07:09:10;;;;;;;91.67;33.63;;;9.20;92.40;;;;;;5023943;28;20455;-83
2023/02/24 07:11:40;;;;;;;76.83;29.53;;;9.30;92.30;;;;;;5036463;28;20424;-83
2023/02/24 07:14:06;;;;;;;77.30;28.07;;;9.40;92.20;;;;;;5033567;28;20436;-78
2023/02/24 07:16:33;;;;;;;83.97;32.13;;;9.40;91.80;;;;;;5035243;28;20451;-83
2023/02/24 07:19:02;;;;;;;80.67;29.33;;;9.50;91.60;;;;;;5034051;28;20424;-83
2023/02/24 07:21:29;;;;;;;85.23;33.10;;;9.50;91.50;;;;;;5036188;28;20794;-82
2023/02/24 07:23:56;;;;;;;84.20;32.20;;;9.50;91.40;;;;;;5034764;28;20476;-83
2023/02/24 07:26:24;;;;;;;78.20;29.93;;;9.50;91.20;;;;;;5030778;28;20466;-82
2023/02/24 07:28:53;;;;;;;70.07;29.00;;;9.50;91.30;;;;;;5030861;28;20925;-82
2023/02/24 07:31:21;;;;;;;77.03;29.87;;;9.60;91.20;;;;;;5035693;28;20988;-82
2023/02/24 07:33:47;;;;;;;75.70;31.83;;;9.60;91.00;;;;;;5035347;28;20435;-81
2023/02/24 07:36:14;;;;;;;101.43;31.10;;;9.60;90.90;;;;;;5046152;28;20837;-81
2023/02/24 07:38:44;;;;;;;72.53;29.70;;;9.50;91.00;;;;;;5033885;28;20420;-81
2023/02/24 07:41:12;;;;;;;79.70;30.10;;;9.40;91.20;;;;;;5028668;28;20427;-81
2023/02/24 07:43:40;;;;;;;87.97;34.23;;;9.30;91.40;;;;;;5034243;28;20588;-81
2023/02/24 07:46:13;;;;;;;79.13;30.57;;;9.30;91.60;;;;;;5036102;28;20471;-79
2023/02/24 07:48:40;;;;;;;80.83;28.73;;;9.30;91.80;;;;;;5040656;28;20872;-80
2023/02/24 07:51:15;;;;;;;78.93;31.07;;;9.40;91.90;;;;;;5055571;28;20465;-81
2023/02/24 07:53:42;;;;;;;88.30;32.53;;;9.40;91.90;;;;;;5034366;28;20454;-81
2023/02/24 07:56:13;;;;;;;92.37;33.00;;;9.40;92.10;;;;;;5029739;28;20518;-81
2023/02/24 07:58:56;;;;;;;88.03;30.03;;;9.40;92.00;;;;;;5028647;28;20443;-82
2023/02/24 08:01:22;;;;;;;81.50;31.27;;;9.30;92.00;;;;;;5032377;28;20482;-80
2023/02/24 08:03:54;;;;;;;84.93;32.77;;;9.40;92.20;;;;;;5035234;28;20456;-81
2023/02/24 08:06:36;;;;;;;76.03;30.70;;;9.50;92.30;;;;;;5050422;28;20212;-79
2023/02/24 08:09:19;;;;;;;101.47;36.20;;;9.50;92.30;;;;;;5055794;28;20408;-81
2023/02/24 08:11:55;;;;;;;86.57;33.40;;;9.60;92.10;;;;;;5042712;28;20427;-82
2023/02/24 08:14:31;;;;;;;72.17;27.80;;;9.60;91.60;;;;;;5031424;28;20442;-81
2023/02/24 08:16:58;;;;;;;86.70;31.00;;;9.60;91.50;;;;;;5046686;28;20411;-80
2023/02/24 08:19:38;;;;;;;79.43;28.50;;;9.60;91.20;;;;;;5038909;28;20419;-82
2023/02/24 08:22:34;;;;;;;86.60;32.27;;;9.60;91.20;;;;;;5050470;28;20477;-80
2023/02/24 08:24:59;;;;;;;92.97;33.00;;;9.60;91.20;;;;;;5052980;28;20546;-80
2023/02/24 08:27:30;;;;;;;84.57;30.90;;;9.60;91.20;;;;;;5051657;28;20491;-78
2023/02/24 08:29:59;;;;;;;87.67;31.03;;;9.60;91.40;;;;;;5055310;28;20436;-80
2023/02/24 08:32:37;;;;;;;67.47;26.50;;;9.70;91.40;;;;;;5054754;28;20450;-80
2023/02/24 08:35:09;;;;;;;66.73;26.77;;;9.80;91.30;;;;;;5053197;28;20526;-80
2023/02/24 08:37:59;;;;;;;73.97;28.10;;;9.90;91.20;;;;;;5047049;28;20428;-81
2023/02/24 08:43:14;;;;;;;55.17;23.47;;;10.20;90.50;;;;;;5040271;28;20787;-80
2023/02/24 08:45:55;;;;;;;67.77;24.50;;;10.40;90.20;;;;;;5036419;28;20460;-80
2023/02/24 08:48:36;;;;;;;71.00;25.97;;;10.70;89.50;;;;;;5038596;28;20431;-80
2023/02/24 08:51:27;;;;;;;58.20;23.17;;;10.80;88.60;;;;;;5040481;28;20768;-80
2023/02/24 08:53:58;;;;;;;52.30;21.77;;;10.80;87.30;;;;;;5033812;28;20435;-80
2023/02/24 08:56:29;;;;;;;49.53;22.07;;;10.70;86.80;;;;;;5037549;28;20474;-79
2023/02/24 08:58:56;;;;;;;50.87;21.33;;;10.80;86.50;;;;;;5030991;28;20428;-80
2023/02/24 09:01:26;;;;;;;60.43;21.57;;;10.80;86.50;;;;;;5037213;28;20452;-80
2023/02/24 09:03:55;;;;;;;47.20;20.03;;;10.80;85.60;;;;;;5038638;28;20456;-80
2023/02/24 09:07:09;;;;;;;41.13;17.63;;;10.60;85.50;;;;;;5041355;28;20997;-81
2023/02/24 09:09:40;;;;;;;42.37;16.60;;;10.50;85.60;;;;;;5043679;28;20519;-81
2023/02/24 09:12:06;;;;;;;45.27;17.93;;;10.70;85.60;;;;;;5047945;28;20404;-80
2023/02/24 09:14:36;;;;;;;41.43;17.70;;;10.60;85.20;;;;;;5049488;28;20428;-79
2023/02/24 09:17:05;;;;;;;42.30;18.70;;;10.60;85.00;;;;;;5047198;28;20427;-80
2023/02/24 09:20:22;;;;;;;44.20;18.00;;;10.60;85.20;;;;;;5035051;28;20423;-81
2023/02/24 09:22:39;;;;;;;43.60;17.27;;;10.80;85.20;;;;;;5037463;28;20448;-80
2023/02/24 09:25:39;;;;;;;35.70;14.50;;;10.80;84.90;;;;;;5036411;28;21038;-80
2023/02/24 09:28:08;;;;;;;28.97;13.30;;;11.00;83.30;;;;;;5027410;28;20421;-80
2023/02/24 09:30:49;;;;;;;34.03;13.47;;;10.90;81.80;;;;;;5033744;28;20472;-80
2023/02/24 09:33:26;;;;;;;37.10;13.40;;;11.00;81.80;;;;;;5036869;28;20419;-80
2023/02/24 09:36:18;;;;;;;45.10;15.33;;;11.10;81.50;;;;;;5034320;28;20464;-80
2023/02/24 09:41:52;;;;;;;45.90;19.47;;;11.20;80.90;;;;;;5040824;28;20431;-80
2023/02/24 09:44:35;;;;;;;54.50;19.70;;;11.20;82.20;;;;;;5033198;28;20461;-82
2023/02/24 09:47:14;;;;;;;46.60;16.87;;;10.80;83.30;;;;;;5041382;28;20424;-80
2023/02/24 09:49:45;;;;;;;48.60;20.53;;;10.70;84.00;;;;;;5050885;28;20515;-82
2023/02/24 09:52:15;;;;;;;51.10;17.97;;;10.60;84.70;;;;;;5054862;28;20606;-79
2023/02/24 10:00:33;;;;;;;43.27;17.77;;;10.90;83.60;;;;;;5047551;28;20472;-80
2023/02/24 10:03:18;;;;;;;40.20;16.60;;;10.90;82.80;;;;;;5057358;28;20454;-79
2023/02/24 10:06:11;;;;;;;50.50;18.37;;;11.00;82.40;;;;;;5056990;28;20493;-79
2023/02/24 10:08:45;;;;;;;26.03;13.10;;;11.00;82.50;;;;;;5053503;28;20443;-78
2023/02/24 10:11:13;;;;;;;32.60;12.50;;;11.20;81.50;;;;;;5039071;28;20449;-80
2023/02/24 10:13:58;;;;;;;29.83;12.23;;;11.40;80.50;;;;;;5040060;28;20958;-80
2023/02/24 10:16:24;;;;;;;31.40;13.90;;;11.50;78.90;;;;;;5036185;28;20507;-79
2023/02/24 10:19:13;;;;;;;31.57;13.20;;;11.50;78.10;;;;;;5036609;28;20439;-80
2023/02/24 10:22:07;;;;;;;42.27;15.87;;;11.50;78.60;;;;;;5032085;28;20438;-80
2023/02/24 10:25:00;;;;;;;45.83;17.23;;;11.50;79.60;;;;;;5036576;28;20455;-79
2023/02/24 10:27:33;;;;;;;42.53;18.20;;;11.40;80.80;;;;;;5047089;28;20464;-78
2023/02/24 10:30:18;;;;;;;42.97;16.93;;;11.20;81.80;;;;;;5048371;28;20466;-79
2023/02/24 10:32:48;;;;;;;47.03;18.57;;;11.10;82.20;;;;;;5047477;28;20523;-79
2023/02/24 10:35:20;;;;;;;37.47;14.97;;;10.90;82.80;;;;;;5037102;28;20464;-80
2023/02/24 10:37:46;;;;;;;34.10;15.10;;;10.60;83.60;;;;;;5037540;28;20971;-78
2023/02/24 10:40:43;;;;;;;32.30;13.63;;;10.50;83.80;;;;;;5035741;28;20428;-79
2023/02/24 10:43:09;;;;;;;35.97;14.10;;;10.50;84.00;;;;;;5037048;28;20945;-79
2023/02/24 10:45:43;;;;;;;32.13;12.80;;;10.60;83.80;;;;;;5028911;28;20461;-80
2023/02/24 10:48:23;;;;;;;29.83;12.50;;;10.60;83.30;;;;;;5027421;28;20486;-80
2023/02/24 10:50:53;;;;;;;32.60;12.07;;;10.60;82.50;;;;;;5036658;28;20419;-80
2023/02/24 10:53:39;;;;;;;33.77;13.80;;;10.60;82.40;;;;;;5037220;28;20434;-80
2023/02/24 10:56:40;;;;;;;32.30;12.87;;;10.60;81.90;;;;;;5036655;28;20463;-78
2023/02/24 11:02:28;;;;;;;40.23;15.10;;;10.70;82.10;;;;;;5036425;28;20447;-80
2023/02/24 11:07:44;;;;;;;57.60;21.90;;;10.70;82.50;;;;;;5036801;28;20412;-80
2023/02/24 11:10:24;;;;;;;48.53;19.17;;;10.40;84.30;;;;;;5029010;28;20443;-81
2023/02/24 11:18:53;;;;;;;55.77;20.80;;;10.50;84.90;;;;;;5029560;28;20427;-82
2023/02/24 11:21:23;;;;;;;59.03;20.30;;;10.40;84.30;;;;;;5032395;28;20424;-80
2023/02/24 11:23:52;;;;;;;62.20;22.47;;;10.40;84.40;;;;;;5028732;28;20502;-80
2023/02/24 11:26:20;;;;;;;57.30;20.70;;;10.40;84.40;;;;;;5032002;28;20489;-79
2023/02/24 11:29:05;;;;;;;58.13;21.00;;;10.40;84.30;;;;;;5028193;28;20446;-79
2023/02/24 11:32:00;;;;;;;54.00;19.47;;;10.40;84.30;;;;;;5032597;28;20577;-82
2023/02/24 11:34:38;;;;;;;44.97;18.10;;;10.40;84.30;;;;;;5030839;28;20954;-79
2023/02/24 11:37:27;;;;;;;58.93;20.03;;;10.60;84.00;;;;;;5026939;28;20442;-80
2023/02/24 11:40:23;;;;;;;52.77;20.07;;;10.60;83.30;;;;;;5025011;28;20522;-81
2023/02/24 11:43:04;;;;;;;61.27;20.77;;;10.70;83.00;;;;;;5027881;28;20515;-80
2023/02/24 11:45:45;;;;;;;44.20;19.23;;;10.60;83.60;;;;;;5030065;28;20946;-80
2023/02/24 11:48:26;;;;;;;49.70;19.70;;;10.60;83.70;;;;;;5032148;28;20455;-80
2023/02/24 11:50:59;;;;;;;64.37;22.87;;;10.70;83.70;;;;;;5027924;28;20420;-82
2023/02/24 11:53:43;;;;;;;54.60;21.40;;;10.80;83.40;;;;;;5032156;28;20432;-80
2023/02/24 11:56:21;;;;;;;45.87;19.10;;;10.70;83.30;;;;;;5028618;28;20483;-81
2023/02/24 11:59:11;;;;;;;49.60;19.47;;;10.70;83.40;;;;;;5031895;28;20419;-81
2023/02/24 12:01:58;;;;;;;57.03;20.87;;;10.80;83.70;;;;;;5024802;28;20471;-80
2023/02/24 12:04:37;;;;;;;52.20;19.10;;;10.90;83.00;;;;;;5032630;28;20489;-81
2023/02/24 12:07:19;;;;;;;45.00;16.67;;;11.10;82.50;;;;;;5027861;28;20474;-82
2023/02/24 12:09:51;;;;;;;43.07;18.57;;;11.00;80.30;;;;;;5042870;28;20866;-80
2023/02/24 12:12:35;;;;;;;43.07;16.20;;;11.10;80.50;;;;;;5028976;28;20415;-80
2023/02/24 12:15:20;;;;;;;40.10;16.10;;;11.20;80.00;;;;;;5035909;28;21015;-80
2023/02/24 12:17:56;;;;;;;41.30;15.70;;;11.30;78.60;;;;;;5029712;28;20436;-79
2023/02/24 12:20:40;;;;;;;49.07;14.87;;;11.50;78.40;;;;;;5036523;28;20425;-81
2023/02/24 12:23:16;;;;;;;41.00;16.03;;;11.60;77.70;;;;;;5036224;28;20458;-80
2023/02/24 12:26:09;;;;;;;36.20;15.73;;;11.80;77.10;;;;;;5034060;28;20470;-80
2023/02/24 12:29:00;;;;;;;39.03;14.37;;;11.90;76.20;;;;;;5032751;28;20440;-79
2023/02/24 12:31:44;;;;;;;30.70;12.23;;;12.20;75.70;;;;;;5038930;28;20423;-80
2023/02/24 12:34:29;;;;;;;27.83;12.07;;;12.20;74.30;;;;;;5036992;28;20428;-79
2023/02/24 12:37:15;;;;;;;24.40;11.13;;;12.10;74.00;;;;;;5035555;28;20494;-79
2023/02/24 12:39:53;;;;;;;38.00;13.07;;;12.20;74.30;;;;;;5034089;28;20486;-79
2023/02/24 12:42:37;;;;;;;33.07;11.87;;;12.40;73.60;;;;;;5042370;28;20470;-78
2023/02/24 12:45:22;;;;;;;25.47;10.60;;;12.40;72.60;;;;;;5037532;28;20482;-79
2023/02/24 12:47:56;;;;;;;29.83;9.80;;;12.50;72.30;;;;;;5033524;28;20467;-79
2023/02/24 12:50:53;;;;;;;25.47;9.77;;;12.50;71.40;;;;;;5039522;28;20419;-78
2023/02/24 12:53:28;;;;;;;22.70;10.37;;;12.30;72.10;;;;;;5039062;28;20542;-79
2023/02/24 12:56:10;;;;;;;24.07;10.40;;;12.40;72.70;;;;;;5028674;28;20454;-78
2023/02/24 12:58:38;;;;;;;23.17;9.73;;;12.50;72.30;;;;;;5034719;28;20462;-79
2023/02/24 13:01:16;;;;;;;24.93;11.13;;;12.40;71.70;;;;;;5037106;28;20480;-79
2023/02/24 13:03:55;;;;;;;33.50;11.13;;;12.50;72.10;;;;;;5037001;28;21036;-79
2023/02/24 13:06:41;;;;;;;29.53;10.47;;;12.50;71.30;;;;;;5034910;28;20459;-78
2023/02/24 13:09:46;;;;;;;22.00;9.53;;;12.40;71.10;;;;;;5034116;28;20503;-78
2023/02/24 13:12:26;;;;;;;20.87;8.47;;;12.40;71.30;;;;;;5038086;28;20419;-82
2023/02/24 13:14:52;;;;;;;29.80;11.13;;;12.30;72.40;;;;;;5032694;28;20510;-81
2023/02/24 13:17:22;;;;;;;24.83;9.77;;;12.20;71.80;;;;;;5036030;28;20424;-81
2023/02/24 13:19:51;;;;;;;22.23;8.20;;;12.30;72.40;;;;;;5036797;28;20566;-82
2023/02/24 13:22:19;;;;;;;27.90;8.77;;;12.20;71.30;;;;;;5039173;28;20431;-81
2023/02/24 13:24:58;;;;;;;28.87;8.47;;;12.30;71.30;;;;;;5040632;28;20472;-82
2023/02/24 13:27:28;;;;;;;20.83;8.30;;;12.40;70.70;;;;;;5054532;28;20429;-81
2023/02/24 13:30:00;;;;;;;18.10;7.80;;;12.30;70.80;;;;;;5039484;28;20424;-82
2023/02/24 13:32:34;;;;;;;25.90;9.57;;;12.30;71.30;;;;;;5038557;28;20470;-82
2023/02/24 13:35:23;;;;;;;15.93;6.80;;;12.30;71.30;;;;;;5036031;28;20440;-83
2023/02/24 13:37:50;;;;;;;21.20;8.37;;;12.20;71.60;;;;;;5032471;28;20424;-81
2023/02/24 13:40:21;;;;;;;24.80;8.93;;;12.00;71.70;;;;;;5038721;28;20423;-81